sensor_id;sensor_type;location;lat;lon;timestamp;P1;durP1;ratioP1;P2;durP2;ratioP2
63005;SDS011;53704;52.532;6.426;2023-02-28T00:00:19;8.63;;;3.90;;
63005;SDS011;53704;52.532;6.426;2023-02-28T00:02:46;4.15;;;3.67;;
63005;SDS011;53704;52.532;6.426;2023-02-28T00:05:12;7.47;;;4.40;;
63005;SDS011;53704;52.532;6.426;2023-02-28T00:07:40;4.90;;;3.55;;
63005;SDS011;53704;52.532;6.426;2023-02-28T00:10:07;3.28;;;2.97;;
63005;SDS011;53704;52.532;6.426;2023-02-28T00:12:35;4.50;;;4.10;;
63005;SDS011;53704;52.532;6.426;2023-02-28T00:15:02;4.35;;;3.30;;
63005;SDS011;53704;52.532;6.426;2023-02-28T00:17:30;6.45;;;3.22;;
63005;SDS011;53704;52.532;6.426;2023-02-28T00:19:56;4.63;;;3.45;;
63005;SDS011;53704;52.532;6.426;2023-02-28T00:22:22;12.15;;;3.40;;
63005;SDS011;53704;52.532;6.426;2023-02-28T00:24:48;8.45;;;3.40;;
63005;SDS011;53704;52.532;6.426;2023-02-28T00:27:14;8.55;;;4.03;;
63005;SDS011;53704;52.532;6.426;2023-02-28T00:29:39;10.10;;;3.65;;
63005;SDS011;53704;52.532;6.426;2023-02-28T00:32:05;8.35;;;3.83;;
63005;SDS011;53704;52.532;6.426;2023-02-28T00:34:31;10.50;;;3.28;;
63005;SDS011;53704;52.532;6.426;2023-02-28T00:37:02;6.30;;;3.42;;
63005;SDS011;53704;52.532;6.426;2023-02-28T00:39:33;3.65;;;3.30;;
63005;SDS011;53704;52.532;6.426;2023-02-28T00:42:00;5.32;;;3.20;;
63005;SDS011;53704;52.532;6.426;2023-02-28T00:44:26;5.07;;;3.10;;
63005;SDS011;53704;52.532;6.426;2023-02-28T00:46:52;9.85;;;3.92;;
63005;SDS011;53704;52.532;6.426;2023-02-28T00:49:19;6.93;;;3.42;;
63005;SDS011;53704;52.532;6.426;2023-02-28T00:51:45;6.70;;;3.53;;
63005;SDS011;53704;52.532;6.426;2023-02-28T00:54:11;4.45;;;3.33;;
63005;SDS011;53704;52.532;6.426;2023-02-28T00:56:36;7.32;;;3.47;;
63005;SDS011;53704;52.532;6.426;2023-02-28T00:59:01;3.40;;;3.03;;
63005;SDS011;53704;52.532;6.426;2023-02-28T01:01:27;4.65;;;3.20;;
63005;SDS011;53704;52.532;6.426;2023-02-28T01:03:52;3.38;;;3.13;;
63005;SDS011;53704;52.532;6.426;2023-02-28T01:06:18;7.18;;;3.33;;
63005;SDS011;53704;52.532;6.426;2023-02-28T01:08:43;5.53;;;3.67;;
63005;SDS011;53704;52.532;6.426;2023-02-28T01:11:09;4.32;;;3.20;;
63005;SDS011;53704;52.532;6.426;2023-02-28T01:13:36;4.70;;;2.67;;
63005;SDS011;53704;52.532;6.426;2023-02-28T01:16:02;5.32;;;3.20;;
63005;SDS011;53704;52.532;6.426;2023-02-28T01:18:28;7.93;;;3.00;;
63005;SDS011;53704;52.532;6.426;2023-02-28T01:20:53;8.65;;;3.75;;
63005;SDS011;53704;52.532;6.426;2023-02-28T01:23:19;4.90;;;2.60;;
63005;SDS011;53704;52.532;6.426;2023-02-28T01:25:48;3.72;;;3.33;;
63005;SDS011;53704;52.532;6.426;2023-02-28T01:28:14;3.90;;;2.85;;
63005;SDS011;53704;52.532;6.426;2023-02-28T01:30:39;3.30;;;3.00;;
63005;SDS011;53704;52.532;6.426;2023-02-28T01:33:05;5.53;;;3.80;;
63005;SDS011;53704;52.532;6.426;2023-02-28T01:35:34;5.00;;;3.15;;
63005;SDS011;53704;52.532;6.426;2023-02-28T01:38:01;3.92;;;2.60;;
63005;SDS011;53704;52.532;6.426;2023-02-28T01:40:27;3.40;;;3.10;;
63005;SDS011;53704;52.532;6.426;2023-02-28T01:42:52;9.55;;;3.30;;
63005;SDS011;53704;52.532;6.426;2023-02-28T01:47:46;6.22;;;3.00;;
63005;SDS011;53704;52.532;6.426;2023-02-28T01:50:19;4.47;;;3.45;;
63005;SDS011;53704;52.532;6.426;2023-02-28T01:52:48;4.18;;;3.47;;
63005;SDS011;53704;52.532;6.426;2023-02-28T01:55:14;11.65;;;3.78;;
63005;SDS011;53704;52.532;6.426;2023-02-28T01:57:48;11.85;;;3.67;;
63005;SDS011;53704;52.532;6.426;2023-02-28T02:00:17;8.02;;;3.50;;
63005;SDS011;53704;52.532;6.426;2023-02-28T02:02:48;6.28;;;4.28;;
63005;SDS011;53704;52.532;6.426;2023-02-28T02:05:18;3.35;;;3.13;;
63005;SDS011;53704;52.532;6.426;2023-02-28T02:07:46;5.30;;;3.53;;
63005;SDS011;53704;52.532;6.426;2023-02-28T02:10:15;6.55;;;3.45;;
63005;SDS011;53704;52.532;6.426;2023-02-28T02:37:52;3.70;;;3.40;;
63005;SDS011;53704;52.532;6.426;2023-02-28T02:40:50;4.63;;;4.00;;
63005;SDS011;53704;52.532;6.426;2023-02-28T02:43:19;9.18;;;3.97;;
63005;SDS011;53704;52.532;6.426;2023-02-28T02:45:49;7.00;;;4.15;;
63005;SDS011;53704;52.532;6.426;2023-02-28T02:48:20;4.38;;;3.55;;
63005;SDS011;53704;52.532;6.426;2023-02-28T02:50:52;7.88;;;3.50;;
63005;SDS011;53704;52.532;6.426;2023-02-28T02:53:26;6.17;;;3.70;;
63005;SDS011;53704;52.532;6.426;2023-02-28T02:55:58;9.23;;;4.55;;
63005;SDS011;53704;52.532;6.426;2023-02-28T02:58:26;5.80;;;3.42;;
63005;SDS011;53704;52.532;6.426;2023-02-28T03:00:56;6.70;;;4.47;;
63005;SDS011;53704;52.532;6.426;2023-02-28T03:03:24;7.03;;;3.55;;
63005;SDS011;53704;52.532;6.426;2023-02-28T03:05:54;6.75;;;4.43;;
63005;SDS011;53704;52.532;6.426;2023-02-28T03:08:24;9.68;;;3.78;;
63005;SDS011;53704;52.532;6.426;2023-02-28T03:10:57;6.63;;;3.65;;
63005;SDS011;53704;52.532;6.426;2023-02-28T03:27:26;4.40;;;3.85;;
63005;SDS011;53704;52.532;6.426;2023-02-28T03:30:38;7.28;;;4.05;;
63005;SDS011;53704;52.532;6.426;2023-02-28T03:33:36;6.22;;;4.00;;
63005;SDS011;53704;52.532;6.426;2023-02-28T03:35:44;6.13;;;4.40;;
63005;SDS011;53704;52.532;6.426;2023-02-28T03:38:37;7.30;;;4.22;;
63005;SDS011;53704;52.532;6.426;2023-02-28T03:43:41;4.53;;;4.13;;
63005;SDS011;53704;52.532;6.426;2023-02-28T03:46:10;7.50;;;4.32;;
63005;SDS011;53704;52.532;6.426;2023-02-28T03:48:42;4.45;;;4.05;;
63005;SDS011;53704;52.532;6.426;2023-02-28T03:51:11;5.30;;;3.75;;
63005;SDS011;53704;52.532;6.426;2023-02-28T03:53:47;5.90;;;3.95;;
63005;SDS011;53704;52.532;6.426;2023-02-28T03:56:19;7.07;;;3.97;;
63005;SDS011;53704;52.532;6.426;2023-02-28T04:01:41;4.97;;;4.25;;
63005;SDS011;53704;52.532;6.426;2023-02-28T04:04:09;3.85;;;3.55;;
63005;SDS011;53704;52.532;6.426;2023-02-28T04:06:36;4.13;;;3.78;;
63005;SDS011;53704;52.532;6.426;2023-02-28T04:09:03;5.22;;;4.20;;
63005;SDS011;53704;52.532;6.426;2023-02-28T04:11:34;3.83;;;3.53;;
63005;SDS011;53704;52.532;6.426;2023-02-28T04:14:02;6.18;;;3.90;;
63005;SDS011;53704;52.532;6.426;2023-02-28T04:16:29;5.93;;;4.70;;
63005;SDS011;53704;52.532;6.426;2023-02-28T04:18:56;6.00;;;4.30;;
63005;SDS011;53704;52.532;6.426;2023-02-28T04:21:27;4.75;;;4.13;;
63005;SDS011;53704;52.532;6.426;2023-02-28T04:23:54;4.78;;;4.10;;
63005;SDS011;53704;52.532;6.426;2023-02-28T04:26:19;5.55;;;4.13;;
63005;SDS011;53704;52.532;6.426;2023-02-28T04:28:45;6.47;;;4.50;;
63005;SDS011;53704;52.532;6.426;2023-02-28T04:31:10;6.10;;;3.70;;
63005;SDS011;53704;52.532;6.426;2023-02-28T04:33:36;6.22;;;4.32;;
63005;SDS011;53704;52.532;6.426;2023-02-28T04:36:02;4.43;;;3.97;;
63005;SDS011;53704;52.532;6.426;2023-02-28T04:38:32;7.80;;;3.95;;
63005;SDS011;53704;52.532;6.426;2023-02-28T04:40:59;4.25;;;3.85;;
63005;SDS011;53704;52.532;6.426;2023-02-28T04:43:25;4.28;;;3.90;;
63005;SDS011;53704;52.532;6.426;2023-02-28T04:45:52;7.35;;;3.97;;
63005;SDS011;53704;52.532;6.426;2023-02-28T04:48:17;8.13;;;4.85;;
63005;SDS011;53704;52.532;6.426;2023-02-28T04:50:43;5.80;;;4.13;;
63005;SDS011;53704;52.532;6.426;2023-02-28T04:53:08;5.78;;;4.28;;
63005;SDS011;53704;52.532;6.426;2023-02-28T04:55:34;5.20;;;4.20;;
63005;SDS011;53704;52.532;6.426;2023-02-28T04:57:59;4.88;;;4.43;;
63005;SDS011;53704;52.532;6.426;2023-02-28T05:00:24;11.07;;;4.38;;
63005;SDS011;53704;52.532;6.426;2023-02-28T05:02:50;5.30;;;4.43;;
63005;SDS011;53704;52.532;6.426;2023-02-28T05:05:15;4.90;;;4.32;;
63005;SDS011;53704;52.532;6.426;2023-02-28T05:07:43;6.00;;;4.32;;
63005;SDS011;53704;52.532;6.426;2023-02-28T05:10:09;6.10;;;4.22;;
63005;SDS011;53704;52.532;6.426;2023-02-28T05:12:35;4.90;;;3.60;;
63005;SDS011;53704;52.532;6.426;2023-02-28T05:15:01;4.15;;;3.80;;
63005;SDS011;53704;52.532;6.426;2023-02-28T05:17:27;5.80;;;4.28;;
63005;SDS011;53704;52.532;6.426;2023-02-28T05:19:53;7.00;;;3.97;;
63005;SDS011;53704;52.532;6.426;2023-02-28T05:22:18;6.60;;;3.88;;
63005;SDS011;53704;52.532;6.426;2023-02-28T05:24:43;7.18;;;3.95;;
63005;SDS011;53704;52.532;6.426;2023-02-28T05:27:09;3.70;;;3.50;;
63005;SDS011;53704;52.532;6.426;2023-02-28T05:29:35;8.07;;;4.10;;
63005;SDS011;53704;52.532;6.426;2023-02-28T05:32:07;3.97;;;3.67;;
63005;SDS011;53704;52.532;6.426;2023-02-28T05:34:36;4.07;;;3.78;;
63005;SDS011;53704;52.532;6.426;2023-02-28T05:37:05;4.60;;;3.88;;
63005;SDS011;53704;52.532;6.426;2023-02-28T05:39:32;6.65;;;3.53;;
63005;SDS011;53704;52.532;6.426;2023-02-28T05:41:58;5.22;;;3.97;;
63005;SDS011;53704;52.532;6.426;2023-02-28T05:44:23;6.13;;;3.97;;
63005;SDS011;53704;52.532;6.426;2023-02-28T05:46:49;11.77;;;4.03;;
63005;SDS011;53704;52.532;6.426;2023-02-28T05:49:15;3.70;;;3.40;;
63005;SDS011;53704;52.532;6.426;2023-02-28T05:51:40;8.50;;;3.88;;
63005;SDS011;53704;52.532;6.426;2023-02-28T05:54:06;4.57;;;4.18;;
63005;SDS011;53704;52.532;6.426;2023-02-28T05:56:32;9.10;;;4.07;;
63005;SDS011;53704;52.532;6.426;2023-02-28T05:58:59;10.38;;;3.83;;
63005;SDS011;53704;52.532;6.426;2023-02-28T06:01:38;7.30;;;4.40;;
63005;SDS011;53704;52.532;6.426;2023-02-28T06:04:06;8.05;;;3.90;;
63005;SDS011;53704;52.532;6.426;2023-02-28T06:06:33;9.20;;;4.03;;
63005;SDS011;53704;52.532;6.426;2023-02-28T06:09:02;4.35;;;4.05;;
63005;SDS011;53704;52.532;6.426;2023-02-28T06:11:31;3.85;;;3.42;;
63005;SDS011;53704;52.532;6.426;2023-02-28T06:13:57;5.00;;;3.83;;
63005;SDS011;53704;52.532;6.426;2023-02-28T06:16:24;3.83;;;3.50;;
63005;SDS011;53704;52.532;6.426;2023-02-28T06:18:51;4.32;;;3.13;;
63005;SDS011;53704;52.532;6.426;2023-02-28T06:21:17;5.38;;;3.85;;
63005;SDS011;53704;52.532;6.426;2023-02-28T06:23:43;8.40;;;4.28;;
63005;SDS011;53704;52.532;6.426;2023-02-28T06:26:09;4.40;;;3.88;;
63005;SDS011;53704;52.532;6.426;2023-02-28T06:28:35;5.90;;;3.83;;
63005;SDS011;53704;52.532;6.426;2023-02-28T06:31:05;6.38;;;3.70;;
63005;SDS011;53704;52.532;6.426;2023-02-28T06:33:32;10.60;;;3.83;;
63005;SDS011;53704;52.532;6.426;2023-02-28T06:35:58;12.10;;;4.63;;
63005;SDS011;53704;52.532;6.426;2023-02-28T06:38:23;4.50;;;3.60;;
63005;SDS011;53704;52.532;6.426;2023-02-28T06:40:55;6.38;;;3.60;;
63005;SDS011;53704;52.532;6.426;2023-02-28T06:43:22;7.72;;;3.80;;
63005;SDS011;53704;52.532;6.426;2023-02-28T06:45:48;7.90;;;3.90;;
63005;SDS011;53704;52.532;6.426;2023-02-28T06:48:13;4.05;;;3.75;;
63005;SDS011;53704;52.532;6.426;2023-02-28T06:50:39;4.47;;;3.55;;
63005;SDS011;53704;52.532;6.426;2023-02-28T06:53:04;2.97;;;2.70;;
63005;SDS011;53704;52.532;6.426;2023-02-28T06:55:30;4.85;;;3.90;;
63005;SDS011;53704;52.532;6.426;2023-02-28T06:57:56;4.88;;;3.88;;
63005;SDS011;53704;52.532;6.426;2023-02-28T07:00:22;4.32;;;3.92;;
63005;SDS011;53704;52.532;6.426;2023-02-28T07:02:47;3.83;;;3.38;;
63005;SDS011;53704;52.532;6.426;2023-02-28T07:05:13;4.50;;;3.78;;
63005;SDS011;53704;52.532;6.426;2023-02-28T07:07:38;4.25;;;3.85;;
63005;SDS011;53704;52.532;6.426;2023-02-28T07:10:09;5.13;;;3.60;;
63005;SDS011;53704;52.532;6.426;2023-02-28T07:12:36;6.32;;;3.17;;
63005;SDS011;53704;52.532;6.426;2023-02-28T07:15:02;3.83;;;3.60;;
63005;SDS011;53704;52.532;6.426;2023-02-28T07:17:28;5.30;;;3.85;;
63005;SDS011;53704;52.532;6.426;2023-02-28T07:19:53;4.78;;;4.15;;
63005;SDS011;53704;52.532;6.426;2023-02-28T07:22:18;3.85;;;3.55;;
63005;SDS011;53704;52.532;6.426;2023-02-28T07:24:44;4.13;;;3.70;;
63005;SDS011;53704;52.532;6.426;2023-02-28T07:27:09;3.72;;;3.45;;
63005;SDS011;53704;52.532;6.426;2023-02-28T07:29:35;4.70;;;3.55;;
63005;SDS011;53704;52.532;6.426;2023-02-28T07:32:01;7.60;;;3.40;;
63005;SDS011;53704;52.532;6.426;2023-02-28T07:34:26;5.68;;;4.03;;
63005;SDS011;53704;52.532;6.426;2023-02-28T07:36:52;5.35;;;3.15;;
63005;SDS011;53704;52.532;6.426;2023-02-28T07:39:19;7.03;;;3.17;;
63005;SDS011;53704;52.532;6.426;2023-02-28T07:41:46;5.63;;;3.75;;
63005;SDS011;53704;52.532;6.426;2023-02-28T07:44:11;3.80;;;3.22;;
63005;SDS011;53704;52.532;6.426;2023-02-28T07:46:37;4.07;;;3.75;;
63005;SDS011;53704;52.532;6.426;2023-02-28T07:49:02;6.57;;;4.60;;
63005;SDS011;53704;52.532;6.426;2023-02-28T07:51:29;7.22;;;4.88;;
63005;SDS011;53704;52.532;6.426;2023-02-28T07:53:55;10.98;;;4.93;;
63005;SDS011;53704;52.532;6.426;2023-02-28T07:56:21;4.60;;;4.18;;
63005;SDS011;53704;52.532;6.426;2023-02-28T07:58:46;7.45;;;4.88;;
63005;SDS011;53704;52.532;6.426;2023-02-28T08:01:11;8.02;;;4.88;;
63005;SDS011;53704;52.532;6.426;2023-02-28T08:03:38;6.88;;;4.38;;
63005;SDS011;53704;52.532;6.426;2023-02-28T08:06:05;4.10;;;2.90;;
63005;SDS011;53704;52.532;6.426;2023-02-28T08:08:31;4.47;;;2.63;;
63005;SDS011;53704;52.532;6.426;2023-02-28T08:11:00;4.28;;;2.60;;
63005;SDS011;53704;52.532;6.426;2023-02-28T08:13:27;3.95;;;2.90;;
63005;SDS011;53704;52.532;6.426;2023-02-28T08:15:54;5.32;;;3.15;;
63005;SDS011;53704;52.532;6.426;2023-02-28T08:18:21;4.90;;;3.30;;
63005;SDS011;53704;52.532;6.426;2023-02-28T08:20:47;5.25;;;3.13;;
63005;SDS011;53704;52.532;6.426;2023-02-28T08:23:13;2.72;;;2.35;;
63005;SDS011;53704;52.532;6.426;2023-02-28T08:25:38;4.65;;;2.83;;
63005;SDS011;53704;52.532;6.426;2023-02-28T08:28:04;3.92;;;2.80;;
63005;SDS011;53704;52.532;6.426;2023-02-28T08:30:29;6.93;;;3.20;;
63005;SDS011;53704;52.532;6.426;2023-02-28T08:32:55;4.53;;;3.13;;
63005;SDS011;53704;52.532;6.426;2023-02-28T08:35:21;3.50;;;3.20;;
63005;SDS011;53704;52.532;6.426;2023-02-28T08:37:49;5.53;;;3.50;;
63005;SDS011;53704;52.532;6.426;2023-02-28T08:40:15;3.67;;;3.38;;
63005;SDS011;53704;52.532;6.426;2023-02-28T08:42:47;3.45;;;3.15;;
63005;SDS011;53704;52.532;6.426;2023-02-28T08:45:13;2.92;;;2.70;;
63005;SDS011;53704;52.532;6.426;2023-02-28T08:47:39;3.30;;;2.47;;
63005;SDS011;53704;52.532;6.426;2023-02-28T08:50:05;4.55;;;2.90;;
63005;SDS011;53704;52.532;6.426;2023-02-28T08:52:32;3.53;;;3.33;;
63005;SDS011;53704;52.532;6.426;2023-02-28T08:54:58;5.35;;;3.33;;
63005;SDS011;53704;52.532;6.426;2023-02-28T08:57:23;6.65;;;3.60;;
63005;SDS011;53704;52.532;6.426;2023-02-28T08:59:51;2.95;;;2.75;;
63005;SDS011;53704;52.532;6.426;2023-02-28T09:02:16;3.90;;;3.60;;
63005;SDS011;53704;52.532;6.426;2023-02-28T09:04:42;3.30;;;2.58;;
63005;SDS011;53704;52.532;6.426;2023-02-28T09:07:10;2.90;;;2.47;;
63005;SDS011;53704;52.532;6.426;2023-02-28T09:09:36;3.70;;;2.90;;
63005;SDS011;53704;52.532;6.426;2023-02-28T09:12:01;8.38;;;3.42;;
63005;SDS011;53704;52.532;6.426;2023-02-28T09:14:27;3.38;;;3.08;;
63005;SDS011;53704;52.532;6.426;2023-02-28T09:16:52;3.40;;;2.80;;
63005;SDS011;53704;52.532;6.426;2023-02-28T09:19:18;5.47;;;3.45;;
63005;SDS011;53704;52.532;6.426;2023-02-28T09:21:43;3.70;;;2.08;;
63005;SDS011;53704;52.532;6.426;2023-02-28T09:24:09;4.30;;;1.90;;
63005;SDS011;53704;52.532;6.426;2023-02-28T09:26:36;1.80;;;1.70;;
63005;SDS011;53704;52.532;6.426;2023-02-28T09:29:02;2.30;;;1.70;;
63005;SDS011;53704;52.532;6.426;2023-02-28T09:31:28;1.50;;;1.40;;
63005;SDS011;53704;52.532;6.426;2023-02-28T09:33:55;1.63;;;1.38;;
63005;SDS011;53704;52.532;6.426;2023-02-28T09:36:23;1.95;;;1.20;;
63005;SDS011;53704;52.532;6.426;2023-02-28T09:38:49;1.20;;;1.10;;
63005;SDS011;53704;52.532;6.426;2023-02-28T09:41:20;3.33;;;1.10;;
63005;SDS011;53704;52.532;6.426;2023-02-28T09:44:04;1.48;;;1.42;;
63005;SDS011;53704;52.532;6.426;2023-02-28T09:46:34;1.58;;;1.30;;
63005;SDS011;53704;52.532;6.426;2023-02-28T09:49:16;1.35;;;1.25;;
63005;SDS011;53704;52.532;6.426;2023-02-28T09:52:01;1.45;;;1.35;;
63005;SDS011;53704;52.532;6.426;2023-02-28T09:54:34;1.20;;;1.15;;
63005;SDS011;53704;52.532;6.426;2023-02-28T09:57:01;8.05;;;1.50;;
63005;SDS011;53704;52.532;6.426;2023-02-28T10:02:20;3.50;;;1.42;;
63005;SDS011;53704;52.532;6.426;2023-02-28T10:04:59;2.40;;;1.48;;
63005;SDS011;53704;52.532;6.426;2023-02-28T10:09:57;1.65;;;1.27;;
63005;SDS011;53704;52.532;6.426;2023-02-28T10:12:26;1.40;;;1.20;;
63005;SDS011;53704;52.532;6.426;2023-02-28T10:14:54;1.52;;;1.40;;
63005;SDS011;53704;52.532;6.426;2023-02-28T10:17:26;1.90;;;1.67;;
63005;SDS011;53704;52.532;6.426;2023-02-28T10:20:02;1.98;;;1.00;;
63005;SDS011;53704;52.532;6.426;2023-02-28T10:22:42;1.63;;;1.52;;
63005;SDS011;53704;52.532;6.426;2023-02-28T10:25:33;1.52;;;1.20;;
63005;SDS011;53704;52.532;6.426;2023-02-28T10:28:10;1.13;;;1.00;;
63005;SDS011;53704;52.532;6.426;2023-02-28T10:30:39;1.88;;;1.70;;
63005;SDS011;53704;52.532;6.426;2023-02-28T10:33:18;1.33;;;1.00;;
63005;SDS011;53704;52.532;6.426;2023-02-28T10:35:53;2.80;;;1.23;;
63005;SDS011;53704;52.532;6.426;2023-02-28T10:38:23;1.40;;;1.15;;
63005;SDS011;53704;52.532;6.426;2023-02-28T10:40:51;1.40;;;1.27;;
63005;SDS011;53704;52.532;6.426;2023-02-28T10:49:01;1.50;;;1.27;;
63005;SDS011;53704;52.532;6.426;2023-02-28T10:51:34;1.38;;;1.33;;
63005;SDS011;53704;52.532;6.426;2023-02-28T10:54:03;1.40;;;1.30;;
63005;SDS011;53704;52.532;6.426;2023-02-28T10:56:30;3.33;;;1.83;;
63005;SDS011;53704;52.532;6.426;2023-02-28T10:59:01;1.50;;;1.27;;
63005;SDS011;53704;52.532;6.426;2023-02-28T11:04:11;2.63;;;2.42;;
63005;SDS011;53704;52.532;6.426;2023-02-28T11:07:17;7.00;;;3.20;;
63005;SDS011;53704;52.532;6.426;2023-02-28T11:09:50;2.17;;;2.08;;
63005;SDS011;53704;52.532;6.426;2023-02-28T11:12:22;1.65;;;1.10;;
63005;SDS011;53704;52.532;6.426;2023-02-28T11:14:51;4.00;;;1.20;;
63005;SDS011;53704;52.532;6.426;2023-02-28T11:17:20;5.35;;;1.45;;
63005;SDS011;53704;52.532;6.426;2023-02-28T11:19:51;1.55;;;1.45;;
63005;SDS011;53704;52.532;6.426;2023-02-28T11:22:26;1.45;;;1.35;;
63005;SDS011;53704;52.532;6.426;2023-02-28T11:24:55;2.83;;;1.10;;
63005;SDS011;53704;52.532;6.426;2023-02-28T11:27:25;1.38;;;1.23;;
63005;SDS011;53704;52.532;6.426;2023-02-28T11:29:53;3.25;;;1.45;;
63005;SDS011;53704;52.532;6.426;2023-02-28T11:32:19;2.33;;;1.17;;
63005;SDS011;53704;52.532;6.426;2023-02-28T11:34:46;2.47;;;1.58;;
63005;SDS011;53704;52.532;6.426;2023-02-28T11:37:25;1.20;;;1.10;;
63005;SDS011;53704;52.532;6.426;2023-02-28T11:39:53;1.90;;;1.38;;
63005;SDS011;53704;52.532;6.426;2023-02-28T11:42:36;1.40;;;1.30;;
63005;SDS011;53704;52.532;6.426;2023-02-28T11:45:38;1.58;;;1.23;;
63005;SDS011;53704;52.532;6.426;2023-02-28T11:48:21;1.52;;;1.42;;
63005;SDS011;53704;52.532;6.426;2023-02-28T11:50:58;1.40;;;1.30;;
63005;SDS011;53704;52.532;6.426;2023-02-28T11:58:55;1.20;;;1.20;;
63005;SDS011;53704;52.532;6.426;2023-02-28T12:06:50;2.05;;;1.60;;
63005;SDS011;53704;52.532;6.426;2023-02-28T12:09:29;1.23;;;1.23;;
63005;SDS011;53704;52.532;6.426;2023-02-28T12:12:19;1.10;;;1.10;;
63005;SDS011;53704;52.532;6.426;2023-02-28T12:19:58;1.10;;;1.00;;
63005;SDS011;53704;52.532;6.426;2023-02-28T12:22:32;3.55;;;1.35;;
63005;SDS011;53704;52.532;6.426;2023-02-28T12:28:14;0.85;;;0.85;;
63005;SDS011;53704;52.532;6.426;2023-02-28T12:30:47;2.78;;;1.35;;
63005;SDS011;53704;52.532;6.426;2023-02-28T12:33:20;1.65;;;1.20;;
63005;SDS011;53704;52.532;6.426;2023-02-28T12:35:51;1.98;;;1.40;;
63005;SDS011;53704;52.532;6.426;2023-02-28T12:38:22;1.27;;;1.17;;
63005;SDS011;53704;52.532;6.426;2023-02-28T12:41:00;1.42;;;1.33;;
63005;SDS011;53704;52.532;6.426;2023-02-28T12:43:36;1.08;;;1.08;;
63005;SDS011;53704;52.532;6.426;2023-02-28T12:46:07;2.50;;;1.50;;
63005;SDS011;53704;52.532;6.426;2023-02-28T12:48:39;2.00;;;1.30;;
63005;SDS011;53704;52.532;6.426;2023-02-28T12:51:07;3.53;;;1.50;;
63005;SDS011;53704;52.532;6.426;2023-02-28T13:04:42;2.10;;;1.90;;
63005;SDS011;53704;52.532;6.426;2023-02-28T13:10:21;3.33;;;1.30;;
63005;SDS011;53704;52.532;6.426;2023-02-28T13:12:48;5.68;;;1.60;;
63005;SDS011;53704;52.532;6.426;2023-02-28T13:15:22;1.85;;;1.60;;
63005;SDS011;53704;52.532;6.426;2023-02-28T13:17:54;1.95;;;1.30;;
63005;SDS011;53704;52.532;6.426;2023-02-28T13:20:27;2.15;;;2.00;;
63005;SDS011;53704;52.532;6.426;2023-02-28T13:22:59;1.70;;;1.60;;
63005;SDS011;53704;52.532;6.426;2023-02-28T13:28:10;1.15;;;1.15;;
63005;SDS011;53704;52.532;6.426;2023-02-28T13:33:30;2.63;;;1.60;;
63005;SDS011;53704;52.532;6.426;2023-02-28T13:44:02;1.33;;;1.33;;
63005;SDS011;53704;52.532;6.426;2023-02-28T13:46:32;2.13;;;1.23;;
63005;SDS011;53704;52.532;6.426;2023-02-28T13:51:51;1.25;;;1.25;;
63005;SDS011;53704;52.532;6.426;2023-02-28T13:54:26;2.25;;;1.85;;
63005;SDS011;53704;52.532;6.426;2023-02-28T13:57:11;2.58;;;1.70;;
63005;SDS011;53704;52.532;6.426;2023-02-28T14:02:26;2.05;;;1.50;;
63005;SDS011;53704;52.532;6.426;2023-02-28T14:07:48;1.70;;;1.60;;
63005;SDS011;53704;52.532;6.426;2023-02-28T14:10:23;1.67;;;1.58;;
63005;SDS011;53704;52.532;6.426;2023-02-28T14:12:58;5.53;;;1.50;;
63005;SDS011;53704;52.532;6.426;2023-02-28T14:18:32;2.38;;;1.75;;
63005;SDS011;53704;52.532;6.426;2023-02-28T14:21:43;2.35;;;2.25;;
63005;SDS011;53704;52.532;6.426;2023-02-28T14:29:01;1.83;;;1.73;;
63005;SDS011;53704;52.532;6.426;2023-02-28T14:31:54;2.17;;;1.98;;
63005;SDS011;53704;52.532;6.426;2023-02-28T14:34:41;1.67;;;1.50;;
63005;SDS011;53704;52.532;6.426;2023-02-28T14:37:17;2.42;;;1.60;;
63005;SDS011;53704;52.532;6.426;2023-02-28T14:39:45;3.08;;;2.00;;
63005;SDS011;53704;52.532;6.426;2023-02-28T14:42:27;2.55;;;1.85;;
63005;SDS011;53704;52.532;6.426;2023-02-28T14:45:01;4.10;;;1.98;;
63005;SDS011;53704;52.532;6.426;2023-02-28T14:47:36;1.90;;;1.80;;
63005;SDS011;53704;52.532;6.426;2023-02-28T14:50:02;2.00;;;1.80;;
63005;SDS011;53704;52.532;6.426;2023-02-28T14:52:29;1.90;;;1.80;;
63005;SDS011;53704;52.532;6.426;2023-02-28T14:54:58;2.40;;;1.92;;
63005;SDS011;53704;52.532;6.426;2023-02-28T14:57:30;1.80;;;1.70;;
63005;SDS011;53704;52.532;6.426;2023-02-28T14:59:58;2.30;;;2.10;;
63005;SDS011;53704;52.532;6.426;2023-02-28T15:02:24;2.00;;;1.88;;
63005;SDS011;53704;52.532;6.426;2023-02-28T15:05:52;1.73;;;1.63;;
63005;SDS011;53704;52.532;6.426;2023-02-28T15:08:13;3.63;;;1.88;;
63005;SDS011;53704;52.532;6.426;2023-02-28T15:10:59;3.08;;;2.00;;
63005;SDS011;53704;52.532;6.426;2023-02-28T15:13:50;3.30;;;1.60;;
63005;SDS011;53704;52.532;6.426;2023-02-28T15:21:38;1.80;;;1.70;;
63005;SDS011;53704;52.532;6.426;2023-02-28T15:27:23;3.22;;;1.90;;
63005;SDS011;53704;52.532;6.426;2023-02-28T15:30:08;4.50;;;2.08;;
63005;SDS011;53704;52.532;6.426;2023-02-28T15:32:34;2.50;;;1.88;;
63005;SDS011;53704;52.532;6.426;2023-02-28T15:35:26;1.77;;;1.60;;
63005;SDS011;53704;52.532;6.426;2023-02-28T15:37:55;3.65;;;1.98;;
63005;SDS011;53704;52.532;6.426;2023-02-28T15:40:38;4.13;;;2.00;;
63005;SDS011;53704;52.532;6.426;2023-02-28T15:43:15;1.98;;;1.88;;
63005;SDS011;53704;52.532;6.426;2023-02-28T15:48:31;6.78;;;1.30;;
63005;SDS011;53704;52.532;6.426;2023-02-28T15:53:36;1.33;;;1.33;;
63005;SDS011;53704;52.532;6.426;2023-02-28T15:56:12;2.15;;;1.95;;
63005;SDS011;53704;52.532;6.426;2023-02-28T15:58:44;2.40;;;1.67;;
63005;SDS011;53704;52.532;6.426;2023-02-28T16:01:18;2.53;;;1.77;;
63005;SDS011;53704;52.532;6.426;2023-02-28T16:03:49;3.10;;;1.83;;
63005;SDS011;53704;52.532;6.426;2023-02-28T16:08:42;5.72;;;1.85;;
63005;SDS011;53704;52.532;6.426;2023-02-28T16:11:10;1.65;;;1.55;;
63005;SDS011;53704;52.532;6.426;2023-02-28T16:13:39;1.70;;;1.55;;
63005;SDS011;53704;52.532;6.426;2023-02-28T16:16:05;1.85;;;1.75;;
63005;SDS011;53704;52.532;6.426;2023-02-28T16:18:30;3.50;;;1.67;;
63005;SDS011;53704;52.532;6.426;2023-02-28T16:20:56;1.67;;;1.58;;
63005;SDS011;53704;52.532;6.426;2023-02-28T16:23:21;2.50;;;2.03;;
63005;SDS011;53704;52.532;6.426;2023-02-28T16:25:47;1.75;;;1.65;;
63005;SDS011;53704;52.532;6.426;2023-02-28T16:28:15;2.47;;;2.15;;
63005;SDS011;53704;52.532;6.426;2023-02-28T16:30:45;1.95;;;1.85;;
63005;SDS011;53704;52.532;6.426;2023-02-28T16:33:11;2.35;;;1.75;;
63005;SDS011;53704;52.532;6.426;2023-02-28T16:35:36;3.20;;;1.80;;
63005;SDS011;53704;52.532;6.426;2023-02-28T16:38:02;2.78;;;1.70;;
63005;SDS011;53704;52.532;6.426;2023-02-28T16:40:27;2.38;;;1.83;;
63005;SDS011;53704;52.532;6.426;2023-02-28T16:42:58;1.73;;;1.63;;
63005;SDS011;53704;52.532;6.426;2023-02-28T16:45:26;2.60;;;2.00;;
63005;SDS011;53704;52.532;6.426;2023-02-28T16:47:54;2.67;;;1.80;;
63005;SDS011;53704;52.532;6.426;2023-02-28T16:50:24;1.48;;;1.38;;
63005;SDS011;53704;52.532;6.426;2023-02-28T16:52:52;1.88;;;1.67;;
63005;SDS011;53704;52.532;6.426;2023-02-28T16:55:19;1.77;;;1.42;;
63005;SDS011;53704;52.532;6.426;2023-02-28T16:57:47;2.17;;;1.92;;
63005;SDS011;53704;52.532;6.426;2023-02-28T17:00:17;2.00;;;1.90;;
63005;SDS011;53704;52.532;6.426;2023-02-28T17:02:42;1.75;;;1.65;;
63005;SDS011;53704;52.532;6.426;2023-02-28T17:05:10;2.72;;;2.17;;
63005;SDS011;53704;52.532;6.426;2023-02-28T17:07:37;2.85;;;2.30;;
63005;SDS011;53704;52.532;6.426;2023-02-28T17:10:09;1.83;;;1.73;;
63005;SDS011;53704;52.532;6.426;2023-02-28T17:12:41;1.65;;;1.55;;
63005;SDS011;53704;52.532;6.426;2023-02-28T17:15:06;1.90;;;1.80;;
63005;SDS011;53704;52.532;6.426;2023-02-28T17:17:34;3.45;;;2.20;;
63005;SDS011;53704;52.532;6.426;2023-02-28T17:19:59;3.15;;;1.83;;
63005;SDS011;53704;52.532;6.426;2023-02-28T17:22:25;5.82;;;2.35;;